Tuesday, February 20, 2018, 10:44 AM EST
Back to Local

KDSV, Dansville Municipal Airport

Location: Dansville, NY, United States Lat: 42.567
Local Time: 10:44 AM EST (15:44 GMT) Lon: -77.717
Time Zone: US/Eastern Elev: 662 ft

Show me the last for .
Show Decoded

2018-02-20 09:54 METAR KDSV 201454Z AUTO 16006KT 10SM BKN043 OVC110 18/12 A3011 RMK AO2 SLP203
                 T01830117 50000 =
2018-02-20 08:54 METAR KDSV 201354Z AUTO 16003KT 10SM OVC090 14/11 A3011 RMK AO2 SLP204 T01440106
                 =
2018-02-20 07:54 METAR KDSV 201254Z AUTO 12006KT 10SM OVC100 13/10 A3011 RMK AO2 SLP207 T01280100
                 =
2018-02-20 06:54 METAR KDSV 201154Z AUTO 14005KT 10SM BKN100 11/08 A3011 RMK AO2 SLP207 60000
                 70015 T01110083 10128 20106 51004 =
2018-02-20 05:54 METAR KDSV 201054Z AUTO VRB03KT 10SM OVC085 12/09 A3011 RMK AO2 SLP206 T01170089
                 =
2018-02-20 04:54 METAR KDSV 200954Z AUTO 14007KT 10SM OVC085 11/09 A3010 RMK AO2 SLP203 T01110089
                 =
2018-02-20 03:54 METAR KDSV 200854Z AUTO 12006KT 10SM OVC080 12/09 A3010 RMK AO2 SLP202 60000
                 T01170089 51005 =
2018-02-20 02:54 METAR KDSV 200754Z AUTO 15005KT 10SM BKN075 OVC110 12/09 A3010 RMK AO2
                 RAB0657E07 SLP202 P0000 T01220094 =
2018-02-20 01:54 METAR KDSV 200654Z AUTO 16007KT 10SM SCT110 13/09 A3009 RMK AO2 SLP198 T01280089
                 =
2018-02-20 00:54 METAR KDSV 200554Z AUTO 15007KT 10SM CLR 12/08 A3008 RMK AO2 SLP197 60004
                 T01170083 10117 20100 58000 =
2018-02-19 23:54 METAR KDSV 200454Z AUTO 15005KT 10SM OVC085 11/08 A3008 RMK AO2 SLP198 T01060083
                 401171011 =
2018-02-19 22:54 METAR KDSV 200354Z AUTO 14006KT 10SM FEW065 BKN110 10/08 A3008 RMK AO2 RAB05E49
                 SLP198 P0001 T01000083 =
2018-02-19 21:54 METAR KDSV 200254Z AUTO 14006KT 10SM SCT060 BKN075 OVC090 11/09 A3008 RMK AO2
                 RAE29 SLP197 P0001 60003 T01110089 58000 =
2018-02-19 20:54 METAR KDSV 200154Z AUTO 12006KT 10SM -RA OVC050 11/09 A3010 RMK AO2 RAE28B44
                 SLP204 P0000 T01110089 =
2018-02-19 19:54 METAR KDSV 200054Z AUTO 17009KT 130V200 10SM -RA OVC110 11/08 A3008 RMK AO2
                 SLP198 P0002 T01110083 =
2018-02-19 18:54 METAR KDSV 192354Z AUTO 15008KT 10SM -RA FEW080 OVC095 10/07 A3008 RMK AO2
                 SLP199 P0002 60010 T01000072 10100 20083 50000 =
2018-02-19 17:54 METAR KDSV 192254Z AUTO 16008KT 10SM -RA OVC090 09/07 A3009 RMK AO2 SLP203 P0002
                 T00940067 =
2018-02-19 16:54 METAR KDSV 192154Z AUTO 14006KT 10SM -RA FEW080 OVC100 09/06 A3009 RMK AO2
                 SLP201 P0002 T00940061 =
2018-02-19 16:03 METAR KDSV 192103Z AUTO 13008KT 10SM -RA SCT023 SCT070 OVC095 09/06 A3009 RMK
                 AO2 P0001 T00890061 =
2018-02-19 15:54 METAR KDSV 192054Z AUTO 15007G16KT 10SM -RA BKN023 BKN070 OVC090 09/06 A3008 RMK
                 AO2 SLP200 P0002 60004 T00890061 58003 =
2018-02-19 15:36 METAR KDSV 192036Z AUTO 13009KT 10SM -RA BKN023 OVC090 09/06 A3008 RMK AO2 P0002
                 T00890061 =
2018-02-19 15:09 METAR KDSV 192009Z AUTO 13009KT 10SM -RA FEW023 SCT060 OVC080 09/06 A3009 RMK
                 AO2 P0001 T00890061 =
2018-02-19 14:54 METAR KDSV 191954Z AUTO 14010KT 7SM -RA BKN023 BKN060 OVC080 09/06 A3009 RMK AO2
                 RAB10 SLP203 P0002 T00890056 =
2018-02-19 13:54 METAR KDSV 191854Z AUTO 14011G17KT 10SM OVC024 09/04 A3010 RMK AO2 SLP204
                 T00940039 =
2018-02-19 12:54 METAR KDSV 191754Z AUTO 12009G18KT 10SM OVC024 08/03 A3009 RMK AO2 SLP204 60001
                 T00830028 10083 20033 56024 =
2018-02-19 12:19 METAR KDSV 191719Z AUTO 15018G24KT 10SM BKN025 OVC110 08/02 A3011 RMK AO2
                 T00780022 =
2018-02-19 11:54 METAR KDSV 191654Z AUTO 14014G21KT 10SM BKN110 08/02 A3011 RMK AO2 PK WND
                 15027/1639 RAE32 SLP208 P0001 T00780022 =
2018-02-19 10:54 METAR KDSV 191554Z AUTO 14013G20KT 10SM -RA FEW029 BKN100 OVC110 08/01 A3014 RMK
                 AO2 RAB40 SLP219 P0000 T00780011 =

Support USWX by starting your Amazon purchase here.